Time;durP1;ratioP1;P1;durP2;ratioP2;P2;SDS_P1;SDS_P2;PMS_P1;PMS_P2;Temp;Humidity;BMP_temperature;BMP_pressure;BME280_temperature;BME280_humidity;BME280_pressure;Samples;Min_cycle;Max_cycle;Signal;HPM_P1;HPM_P2
2023/01/13 00:00:47;;;;;;;3.83;1.88;;;;;;;10.00;63.96;99723.47;5053787;27;101121;-77
2023/01/13 00:03:13;;;;;;;3.45;1.35;;;;;;;9.94;64.06;99692.25;5058895;27;100728;-77
2023/01/13 00:05:39;;;;;;;3.55;1.90;;;;;;;10.09;63.98;99711.75;5043115;27;98076;-77
2023/01/13 00:08:05;;;;;;;2.80;1.30;;;;;;;10.04;63.50;99713.72;5072325;27;97378;-77
2023/01/13 00:10:32;;;;;;;4.43;1.85;;;;;;;9.94;63.35;99681.78;5037272;27;100930;-78
2023/01/13 00:12:58;;;;;;;4.47;1.48;;;;;;;10.10;63.69;99716.09;5037253;27;98404;-77
2023/01/13 00:15:23;;;;;;;3.28;1.50;;;;;;;10.09;63.95;99702.09;5073420;27;97123;-77
2023/01/13 00:17:49;;;;;;;2.10;1.52;;;;;;;10.06;63.58;99707.47;5072083;27;97300;-77
2023/01/13 00:20:15;;;;;;;3.47;1.40;;;;;;;10.05;64.18;99700.53;5069420;27;97440;-77
2023/01/13 00:22:41;;;;;;;2.15;1.55;;;;;;;9.94;64.03;99687.84;5029792;27;98030;-78
2023/01/13 00:25:06;;;;;;;2.33;1.50;;;;;;;9.99;64.27;99698.16;5062905;27;97177;-77
2023/01/13 00:27:32;;;;;;;2.45;1.48;;;;;;;10.06;63.84;99696.97;5068739;27;96832;-77
2023/01/13 00:29:58;;;;;;;2.63;1.23;;;;;;;10.02;64.36;99691.94;5029183;27;100790;-77
2023/01/13 00:32:24;;;;;;;2.50;1.38;;;;;;;9.95;64.69;99692.22;5035620;27;100411;-77
2023/01/13 00:34:49;;;;;;;2.75;1.42;;;;;;;9.99;64.56;99698.16;5045184;27;98196;-78
2023/01/13 00:37:15;;;;;;;2.13;1.73;;;;;;;9.94;64.74;99693.09;5043416;27;97413;-78
2023/01/13 00:39:41;;;;;;;1.85;1.20;;;;;;;9.93;64.78;99680.91;5052806;27;97448;-77
2023/01/13 00:44:51;;;;;;;3.03;1.50;;;;;;;10.08;64.28;99689.06;5059569;27;97299;-77
2023/01/13 00:47:17;;;;;;;2.08;1.48;;;;;;;10.06;64.40;99696.97;5042384;27;97191;-77
2023/01/13 00:49:43;;;;;;;2.55;1.40;;;;;;;10.07;64.47;99690.00;5042829;27;101120;-77
2023/01/13 00:52:10;;;;;;;3.90;1.80;;;;;;;10.10;64.65;99674.13;5034602;27;98201;-77
2023/01/13 00:54:36;;;;;;;3.40;2.20;;;;;;;10.14;64.40;99684.41;5045974;27;97509;-77
2023/01/13 00:57:03;;;;;;;1.60;1.20;;;;;;;10.10;64.47;99685.47;5022497;27;97469;-77
2023/01/13 00:59:28;;;;;;;2.33;1.40;;;;;;;10.05;64.78;99686.56;5062539;27;98027;-77
2023/01/13 01:01:54;;;;;;;2.78;1.85;;;;;;;10.10;64.61;99684.63;5027855;27;101420;-77
2023/01/13 01:04:19;;;;;;;2.83;1.80;;;;;;;10.12;65.00;99683.66;4990954;27;97144;-78
2023/01/13 01:06:45;;;;;;;2.60;1.25;;;;;;;10.10;64.30;99682.00;5008214;27;97434;-77
2023/01/13 01:09:14;;;;;;;3.00;1.67;;;;;;;10.00;64.71;99664.94;4996159;28;100716;-77
2023/01/13 01:11:41;;;;;;;4.03;1.55;;;;;;;10.08;64.21;99675.94;4984023;27;100966;-77
2023/01/13 01:14:08;;;;;;;3.35;1.75;;;;;;;10.05;64.37;99668.22;5029848;27;97215;-77
2023/01/13 01:16:34;;;;;;;2.85;1.38;;;;;;;10.06;64.50;99664.66;5025611;27;97033;-77
2023/01/13 01:19:00;;;;;;;2.05;1.30;;;;;;;9.97;64.56;99650.19;5012738;28;101472;-77
2023/01/13 01:21:27;;;;;;;2.13;1.45;;;;;;;10.15;64.58;99665.16;4999922;28;101315;-77
2023/01/13 01:23:53;;;;;;;3.38;1.42;;;;;;;10.07;63.91;99653.28;5000141;27;97491;-78
2023/01/13 01:26:22;;;;;;;3.22;1.70;;;;;;;10.13;64.36;99655.63;5016358;27;96977;-77
2023/01/13 01:28:48;;;;;;;2.83;1.55;;;;;;;10.14;63.96;99662.56;4988392;27;101316;-77
2023/01/13 01:31:16;;;;;;;3.55;1.60;;;;;;;10.11;63.86;99660.09;5018229;27;101125;-77
2023/01/13 01:33:42;;;;;;;4.55;1.67;;;;;;;10.11;63.74;99649.59;5041374;27;96857;-77
2023/01/13 01:36:09;;;;;;;3.42;1.48;;;;;;;10.07;64.18;99634.94;5011865;27;98203;-77
2023/01/13 01:38:34;;;;;;;5.10;1.80;;;;;;;10.05;63.97;99640.22;5027110;27;97996;-77
2023/01/13 01:41:00;;;;;;;2.22;1.50;;;;;;;10.09;64.07;99635.69;5003157;27;101334;-78
2023/01/13 01:44:02;;;;;;;3.67;1.83;;;;;;;10.08;63.58;99634.84;5014642;27;97105;-77
2023/01/13 01:46:41;;;;;;;4.18;1.88;;;;;;;10.01;63.63;99622.94;5032940;27;97036;-77
2023/01/13 01:49:09;;;;;;;2.60;1.52;;;;;;;10.01;63.50;99625.56;5002448;28;98054;-77
2023/01/13 01:51:44;;;;;;;2.97;1.48;;;;;;;9.95;63.69;99631.06;5005984;27;100505;-77
2023/01/13 01:54:13;;;;;;;5.30;1.67;;;;;;;9.95;63.45;99623.19;5019769;27;97145;-77
2023/01/13 01:56:41;;;;;;;1.98;1.27;;;;;;;10.05;63.44;99632.34;5031390;27;97178;-78
2023/01/13 01:59:07;;;;;;;3.33;1.67;;;;;;;9.96;63.46;99617.03;5024583;28;98379;-77
2023/01/13 02:01:33;;;;;;;3.83;1.30;;;;;;;10.01;62.93;99624.69;5010143;27;101504;-77
2023/01/13 02:04:02;;;;;;;4.00;1.50;;;;;;;9.84;63.38;99600.03;5013820;28;97215;-77
2023/01/13 02:06:29;;;;;;;3.10;1.30;;;;;;;9.89;63.21;99605.06;5000939;27;98241;-77
2023/01/13 02:08:56;;;;;;;3.72;1.88;;;;;;;9.94;63.49;99601.34;5020745;27;97914;-77
2023/01/13 02:14:13;;;;;;;2.83;1.65;;;;;;;9.94;62.65;99593.47;5009585;27;98676;-77
2023/01/13 02:16:45;;;;;;;3.67;1.73;;;;;;;9.98;62.88;99599.47;5026661;27;97306;-77
2023/01/13 02:19:42;;;;;;;4.30;1.58;;;;;;;9.98;62.88;99592.44;5004931;27;101001;-78
2023/01/13 02:22:13;;;;;;;3.45;2.00;;;;;;;10.01;62.64;99598.47;5011467;27;100047;-77
2023/01/13 02:25:02;;;;;;;3.17;1.58;;;;;;;10.02;62.83;99608.03;5019581;28;97355;-78
2023/01/13 02:27:30;;;;;;;2.20;1.45;;;;;;;10.05;62.52;99611.38;5009605;27;96890;-77
2023/01/13 02:32:54;;;;;;;3.45;1.35;;;;;;;10.10;62.38;99621.69;5033600;27;97405;-77
2023/01/13 02:35:50;;;;;;;3.97;1.33;;;;;;;10.04;62.95;99614.94;5010777;27;97342;-77
2023/01/13 02:38:23;;;;;;;4.55;1.30;;;;;;;10.08;62.49;99607.78;4992483;27;98134;-77
2023/01/13 02:40:58;;;;;;;3.85;1.40;;;;;;;10.14;62.25;99615.38;5024965;27;97493;-78
2023/01/13 02:46:26;;;;;;;3.78;1.55;;;;;;;9.95;62.14;99595.19;5030074;27;97321;-77
2023/01/13 02:48:53;;;;;;;2.67;1.30;;;;;;;9.98;62.29;99604.72;5026706;27;96893;-77
2023/01/13 02:51:21;;;;;;;3.33;1.17;;;;;;;10.01;62.32;99609.81;4991783;27;101520;-77
2023/01/13 02:53:57;;;;;;;3.65;1.67;;;;;;;9.98;62.36;99615.19;5013707;27;101618;-78
2023/01/13 02:56:23;;;;;;;2.85;1.48;;;;;;;9.92;62.59;99595.34;5016272;28;96692;-78
2023/01/13 02:58:49;;;;;;;4.00;1.45;;;;;;;10.03;62.13;99615.81;5025232;27;97101;-77
2023/01/13 03:01:15;;;;;;;2.83;1.58;;;;;;;10.03;62.25;99610.59;5011103;28;101273;-79
2023/01/13 03:03:42;;;;;;;3.63;1.50;;;;;;;10.07;62.07;99598.22;5041030;27;97907;-77
2023/01/13 03:06:28;;;;;;;2.53;1.20;;;;;;;10.15;62.19;99606.56;5023170;27;97963;-77
2023/01/13 03:09:05;;;;;;;2.00;1.35;;;;;;;10.03;62.39;99605.34;5051594;27;97079;-76
2023/01/13 03:11:45;;;;;;;1.98;1.27;;;;;;;10.05;61.98;99606.13;5034625;27;100813;-76
2023/01/13 03:14:23;;;;;;;3.33;1.20;;;;;;;10.08;62.08;99599.91;5030114;27;101557;-76
2023/01/13 03:17:04;;;;;;;4.18;1.50;;;;;;;10.10;61.98;99598.09;5031074;27;98611;-76
2023/01/13 03:19:33;;;;;;;3.25;1.20;;;;;;;9.95;62.68;99587.34;5043726;27;97296;-76
2023/01/13 03:22:02;;;;;;;6.25;1.60;;;;;;;10.05;62.76;99598.25;5038995;27;97507;-76
2023/01/13 03:24:38;;;;;;;2.17;1.10;;;;;;;10.03;63.32;99592.22;5066920;27;101103;-76
2023/01/13 03:27:11;;;;;;;3.85;1.70;;;;;;;9.94;63.01;99582.13;5044476;27;96847;-76
2023/01/13 03:29:45;;;;;;;5.03;1.23;;;;;;;10.03;63.64;99604.50;5041796;27;96827;-76
2023/01/13 03:32:27;;;;;;;2.08;1.27;;;;;;;10.03;63.77;99602.72;5062486;27;98712;-76
2023/01/13 03:34:55;;;;;;;2.10;1.23;;;;;;;10.02;63.43;99594.94;5062533;27;98405;-75
2023/01/13 03:37:25;;;;;;;4.30;1.55;;;;;;;9.90;63.75;99586.66;5052120;27;97883;-76
2023/01/13 03:39:59;;;;;;;1.90;1.35;;;;;;;9.90;63.36;99596.31;5041454;27;97399;-76
2023/01/13 03:42:27;;;;;;;3.45;1.40;;;;;;;9.86;63.60;99587.72;5040107;27;100920;-76
2023/01/13 03:44:57;;;;;;;2.95;1.30;;;;;;;9.88;64.19;99587.66;5043806;27;101594;-76
2023/01/13 03:47:40;;;;;;;2.58;1.42;;;;;;;9.86;63.23;99582.50;5037623;27;97138;-76
2023/01/13 03:50:25;;;;;;;3.72;1.23;;;;;;;9.96;63.70;99594.28;5044653;27;97505;-76
2023/01/13 03:52:56;;;;;;;3.10;1.50;;;;;;;10.01;63.56;99590.63;5065853;27;103090;-75
2023/01/13 03:55:25;;;;;;;4.07;1.27;;;;;;;9.96;63.86;99582.94;5032836;27;100467;-78
2023/01/13 03:58:01;;;;;;;4.85;1.25;;;;;;;9.91;63.61;99587.53;5051378;27;98295;-78
2023/01/13 04:00:32;;;;;;;3.05;1.20;;;;;;;9.97;63.31;99595.13;5046641;27;96903;-77
2023/01/13 04:03:06;;;;;;;5.25;1.45;;;;;;;9.94;63.12;99590.00;5054584;27;97560;-78
2023/01/13 04:05:38;;;;;;;1.98;1.30;;;;;;;9.93;63.93;99586.53;5038661;27;101449;-78
2023/01/13 04:08:18;;;;;;;3.60;1.40;;;;;;;9.90;63.50;99588.44;5044493;27;97005;-78
2023/01/13 04:11:06;;;;;;;2.17;1.20;;;;;;;9.89;63.43;99590.22;5046600;27;96948;-78
2023/01/13 04:13:36;;;;;;;2.80;1.45;;;;;;;9.91;63.67;99582.28;5066326;27;101146;-78
2023/01/13 04:16:04;;;;;;;2.63;1.38;;;;;;;9.97;63.18;99587.25;5057326;27;98039;-78
2023/01/13 04:18:30;;;;;;;5.03;1.40;;;;;;;9.91;63.11;99569.16;5047022;27;101483;-76
2023/01/13 04:20:57;;;;;;;3.92;1.42;;;;;;;9.91;63.43;99569.16;5044231;27;96925;-77
2023/01/13 04:23:23;;;;;;;3.53;1.50;;;;;;;9.89;62.61;99564.00;5034732;27;100797;-76
2023/01/13 04:25:50;;;;;;;1.90;1.38;;;;;;;9.87;62.61;99559.75;5036404;27;101397;-75
2023/01/13 04:28:16;;;;;;;3.33;1.85;;;;;;;10.02;62.98;99576.56;5054883;27;97223;-76
2023/01/13 04:30:42;;;;;;;4.30;1.60;;;;;;;9.98;63.01;99573.25;5034339;27;97568;-76
2023/01/13 04:33:08;;;;;;;3.50;1.77;;;;;;;10.01;62.40;99570.50;5029946;27;98004;-76
2023/01/13 04:35:34;;;;;;;2.75;1.50;;;;;;;9.89;62.56;99544.78;5046021;27;100667;-76
2023/01/13 04:38:08;;;;;;;1.98;1.40;;;;;;;10.03;62.58;99571.25;5063778;27;96776;-76
2023/01/13 04:40:34;;;;;;;2.33;1.40;;;;;;;9.99;62.81;99564.44;5059202;27;97244;-76
2023/01/13 04:42:59;;;;;;;4.78;1.67;;;;;;;10.02;62.86;99559.06;5021275;27;101482;-76
2023/01/13 04:45:25;;;;;;;3.17;1.67;;;;;;;10.03;62.75;99555.50;5049510;27;100708;-76
2023/01/13 04:47:51;;;;;;;2.95;1.23;;;;;;;9.96;62.49;99536.59;5039891;27;97258;-76
2023/01/13 04:50:21;;;;;;;6.18;1.70;;;;;;;10.06;62.27;99557.16;5049194;27;97216;-76
2023/01/13 04:52:48;;;;;;;2.70;1.50;;;;;;;10.05;62.37;99558.94;5044379;27;101280;-76
2023/01/13 04:55:14;;;;;;;3.08;1.80;;;;;;;10.07;62.16;99548.38;5044495;27;100807;-76
2023/01/13 04:57:40;;;;;;;4.88;1.73;;;;;;;10.16;61.94;99561.09;5048216;27;97428;-76
2023/01/13 05:00:07;;;;;;;4.43;1.67;;;;;;;10.07;62.10;99554.47;5059601;27;97189;-75
2023/01/13 05:02:32;;;;;;;4.15;1.67;;;;;;;10.14;61.66;99557.69;5038054;27;100981;-76
2023/01/13 05:04:58;;;;;;;2.88;1.48;;;;;;;10.12;62.39;99551.63;5037589;27;101809;-76
2023/01/13 05:07:24;;;;;;;5.57;1.40;;;;;;;10.15;62.20;99562.00;5030169;27;97998;-76
2023/01/13 05:09:50;;;;;;;2.42;1.10;;;;;;;10.15;61.82;99562.88;5022482;27;97713;-76
2023/01/13 05:17:44;;;;;;;2.45;1.30;;;;;;;10.11;61.84;99557.81;5069131;27;97020;-77
2023/01/13 05:20:10;;;;;;;3.90;1.38;;;;;;;10.13;61.76;99562.06;5078907;27;97264;-77
2023/01/13 05:25:20;;;;;;;1.83;1.23;;;;;;;10.06;62.24;99560.63;5056434;27;100987;-76
2023/01/13 05:27:49;;;;;;;3.35;1.25;;;;;;;10.05;62.33;99566.81;5033182;27;97151;-76
2023/01/13 05:30:15;;;;;;;3.42;1.45;;;;;;;10.01;62.18;99564.41;5054826;27;97809;-76
2023/01/13 05:32:40;;;;;;;5.95;1.40;;;;;;;9.95;62.48;99558.50;5031869;27;101397;-76
2023/01/13 05:35:06;;;;;;;2.30;1.38;;;;;;;9.98;62.48;99560.97;5042692;27;100325;-77
2023/01/13 05:37:32;;;;;;;2.33;1.50;;;;;;;10.03;61.97;99567.78;5037679;27;97598;-76
2023/01/13 05:45:25;;;;;;;2.65;1.42;;;;;;;10.02;61.96;99561.69;5050880;27;101317;-77
2023/01/13 05:47:51;;;;;;;3.33;1.70;;;;;;;10.03;62.09;99557.28;5023597;27;96821;-76
2023/01/13 05:50:17;;;;;;;3.58;1.48;;;;;;;10.09;61.88;99565.72;5049823;27;96810;-76
2023/01/13 05:52:43;;;;;;;4.03;1.60;;;;;;;10.12;61.69;99562.13;5034017;27;98594;-76
2023/01/13 05:55:10;;;;;;;3.92;1.30;;;;;;;10.04;61.50;99546.75;5050118;27;97589;-76
2023/01/13 05:57:35;;;;;;;3.13;1.40;;;;;;;10.17;61.99;99566.25;5046346;27;97256;-76
2023/01/13 06:00:01;;;;;;;4.75;1.23;;;;;;;10.08;62.03;99536.97;5054011;27;98036;-74
2023/01/13 06:02:37;;;;;;;4.25;1.60;;;;;;;10.19;61.61;99551.31;5060436;27;98109;-74
2023/01/13 06:05:03;;;;;;;2.13;1.13;;;;;;;10.16;61.43;99556.69;5011618;27;97340;-75
2023/01/13 06:07:28;;;;;;;2.45;1.25;;;;;;;10.14;62.04;99561.16;4983714;28;97596;-74
2023/01/13 06:09:54;;;;;;;5.60;1.30;;;;;;;10.05;61.37;99545.81;5025679;27;97267;-74
2023/01/13 06:12:19;;;;;;;2.97;1.05;;;;;;;10.15;61.75;99559.38;4982915;27;101578;-74
2023/01/13 06:14:45;;;;;;;1.73;1.20;;;;;;;10.17;62.01;99560.16;5010894;28;101428;-76
2023/01/13 06:17:12;;;;;;;2.17;1.10;;;;;;;10.11;62.12;99539.47;5023989;27;97368;-76
2023/01/13 06:19:38;;;;;;;6.05;1.10;;;;;;;10.17;61.72;99561.00;5019600;27;97349;-76
2023/01/13 06:22:12;;;;;;;2.97;1.13;;;;;;;10.16;62.36;99563.72;5022280;27;97404;-77
2023/01/13 06:24:38;;;;;;;4.13;1.45;;;;;;;10.17;61.88;99563.63;5012378;28;98420;-77
2023/01/13 06:27:05;;;;;;;2.63;1.20;;;;;;;10.15;61.94;99565.50;4998303;27;96787;-75
2023/01/13 06:29:30;;;;;;;2.28;1.10;;;;;;;10.16;62.21;99567.19;5016322;28;97166;-76
2023/01/13 06:31:56;;;;;;;3.15;1.17;;;;;;;10.05;62.23;99542.34;5028132;27;98011;-76
2023/01/13 06:34:22;;;;;;;3.72;1.30;;;;;;;9.98;62.49;99521.66;5014768;27;101392;-77
2023/01/13 06:36:50;;;;;;;2.30;1.13;;;;;;;10.22;62.52;99552.94;5005341;27;97387;-77
2023/01/13 06:39:19;;;;;;;3.63;1.20;;;;;;;10.16;62.46;99559.31;5026784;27;97219;-76
2023/01/13 06:44:31;;;;;;;6.38;1.20;;;;;;;10.22;62.28;99565.22;5011074;27;98320;-76
2023/01/13 06:46:57;;;;;;;4.03;1.38;;;;;;;10.25;62.24;99567.69;5006947;27;96867;-76
2023/01/13 06:49:23;;;;;;;4.10;1.13;;;;;;;10.25;62.08;99559.84;5008724;28;98464;-77
2023/01/13 06:51:48;;;;;;;3.08;0.93;;;;;;;10.18;61.99;99553.97;5009989;27;99611;-77
2023/01/13 06:54:14;;;;;;;5.00;1.33;;;;;;;10.08;62.15;99547.47;5011379;27;98391;-78
2023/01/13 06:56:40;;;;;;;1.45;0.80;;;;;;;10.21;62.51;99559.13;5006941;27;97415;-76
2023/01/13 06:59:05;;;;;;;3.08;1.30;;;;;;;10.20;62.49;99558.25;4992704;27;97487;-76
2023/01/13 07:01:31;;;;;;;8.65;1.40;;;;;;;10.09;62.24;99546.53;5022747;27;97541;-76
2023/01/13 07:03:57;;;;;;;2.92;1.30;;;;;;;10.22;62.08;99560.81;5022766;27;100953;-76
2023/01/13 07:06:23;;;;;;;4.65;1.48;;;;;;;10.23;62.37;99567.75;5020587;27;99655;-76
2023/01/13 07:08:48;;;;;;;4.68;1.98;;;;;;;10.20;62.23;99558.25;5042215;27;97246;-76
2023/01/13 07:11:14;;;;;;;5.45;1.90;;;;;;;10.16;62.06;99568.97;5058329;27;100992;-78
2023/01/13 07:16:26;;;;;;;4.70;1.60;;;;;;;10.24;62.37;99568.59;5067823;27;97086;-78
2023/01/13 07:18:52;;;;;;;6.72;2.15;;;;;;;10.15;62.28;99560.25;5031133;27;97212;-78
2023/01/13 07:21:18;;;;;;;3.75;1.70;;;;;;;10.25;62.82;99551.97;5037704;27;101595;-78
2023/01/13 07:23:45;;;;;;;3.67;1.80;;;;;;;10.25;62.43;99565.94;5048641;27;97978;-78
2023/01/13 07:26:12;;;;;;;5.10;2.25;;;;;;;10.19;62.33;99547.84;5027505;27;97200;-78
2023/01/13 07:28:38;;;;;;;3.88;1.52;;;;;;;10.14;62.67;99534.06;5048258;27;96870;-78
2023/01/13 07:31:05;;;;;;;3.53;1.40;;;;;;;10.30;62.61;99563.97;5049037;27;101550;-77
2023/01/13 07:33:32;;;;;;;1.88;1.10;;;;;;;10.31;62.47;99570.94;5048026;27;101239;-77
2023/01/13 07:35:59;;;;;;;4.25;1.38;;;;;;;10.28;62.47;99571.06;5024919;27;100015;-76
2023/01/13 07:38:25;;;;;;;3.90;1.30;;;;;;;10.25;62.64;99563.31;5054780;27;96860;-75
2023/01/13 07:40:51;;;;;;;4.43;1.00;;;;;;;10.24;62.37;99568.59;5056500;27;98063;-75
2023/01/13 07:43:31;;;;;;;7.25;1.50;;;;;;;10.27;62.64;99561.50;5024179;27;101868;-76
2023/01/13 07:45:58;;;;;;;2.38;1.35;;;;;;;10.21;62.22;99559.13;5048366;27;98251;-74
2023/01/13 07:48:25;;;;;;;7.35;1.30;;;;;;;10.31;62.65;99572.69;5056714;27;97303;-75
2023/01/13 07:50:51;;;;;;;3.47;1.30;;;;;;;10.31;62.26;99568.31;5018477;27;101458;-76
2023/01/13 07:53:16;;;;;;;5.30;1.60;;;;;;;10.34;62.43;99564.69;5062304;27;98901;-75
2023/01/13 07:55:42;;;;;;;5.63;2.63;;;;;;;10.19;62.14;99543.44;5064340;27;98261;-78
2023/01/13 07:58:08;;;;;;;2.90;1.38;;;;;;;10.33;62.02;99566.47;5055331;27;97267;-77
2023/01/13 08:00:35;;;;;;;2.70;1.40;;;;;;;10.28;62.25;99562.34;5065533;27;101650;-78
2023/01/13 08:03:01;;;;;;;4.38;2.33;;;;;;;10.31;62.04;99562.22;5035264;27;101404;-79
2023/01/13 08:05:26;;;;;;;3.28;1.55;;;;;;;10.30;62.03;99563.13;5051540;27;96871;-77
2023/01/13 08:07:52;;;;;;;5.57;1.38;;;;;;;10.37;62.06;99567.19;5041260;27;98145;-77
2023/01/13 08:10:17;;;;;;;4.43;1.30;;;;;;;10.41;62.06;99572.22;5064729;27;97676;-78
2023/01/13 08:15:28;;;;;;;3.30;1.40;;;;;;;10.36;62.27;99555.00;5063404;27;96748;-77
2023/01/13 08:17:58;;;;;;;2.25;1.05;;;;;;;10.41;62.12;99556.50;5051147;27;98823;-78
2023/01/13 08:20:24;;;;;;;4.97;1.33;;;;;;;10.47;62.30;99563.22;5034780;27;98255;-76
2023/01/13 08:22:50;;;;;;;5.28;1.77;;;;;;;10.51;61.98;99577.06;5061564;27;97901;-76
2023/01/13 08:25:16;;;;;;;3.58;1.75;;;;;;;10.51;61.58;99569.19;5066254;27;97816;-77
2023/01/13 08:27:42;;;;;;;5.57;1.50;;;;;;;10.37;61.53;99541.78;5067999;27;97348;-79
2023/01/13 08:30:08;;;;;;;4.13;1.17;;;;;;;10.50;61.62;99560.47;5055013;27;101585;-79
2023/01/13 08:32:33;;;;;;;3.42;1.50;;;;;;;10.52;61.12;99544.63;5064326;27;97593;-80
2023/01/13 08:34:59;;;;;;;2.13;1.10;;;;;;;10.64;61.32;99567.69;5046957;27;97363;-80
2023/01/13 08:37:24;;;;;;;4.40;1.38;;;;;;;10.66;61.08;99563.22;5071514;27;98950;-79
2023/01/13 08:39:50;;;;;;;3.38;1.10;;;;;;;10.71;61.01;99560.41;5049322;27;101493;-80
2023/01/13 08:42:16;;;;;;;3.35;1.40;;;;;;;10.72;60.98;99557.69;5056198;27;99152;-79
2023/01/13 08:44:41;;;;;;;3.20;1.00;;;;;;;10.75;60.84;99575.06;5046838;27;97305;-81
2023/01/13 08:47:07;;;;;;;2.60;1.17;;;;;;;10.72;61.07;99567.34;5074129;27;96940;-81
2023/01/13 08:49:32;;;;;;;1.83;1.00;;;;;;;10.80;60.50;99580.97;5067580;27;97436;-80
2023/01/13 08:51:58;;;;;;;3.20;1.38;;;;;;;10.75;60.74;99573.28;5044791;27;101415;-78
2023/01/13 08:54:23;;;;;;;2.45;1.20;;;;;;;10.60;60.88;99563.50;5077907;27;97522;-79
2023/01/13 08:56:49;;;;;;;3.67;1.30;;;;;;;10.70;60.90;99582.28;5059208;27;97637;-79
2023/01/13 08:59:16;;;;;;;2.10;1.23;;;;;;;10.74;61.01;99591.75;5045800;27;101107;-78
2023/01/13 09:01:43;;;;;;;1.67;1.20;;;;;;;10.72;60.83;99578.69;5051407;27;99158;-79
2023/01/13 09:04:18;;;;;;;2.63;1.15;;;;;;;10.74;60.86;99586.50;5006881;27;97407;-79
2023/01/13 09:06:44;;;;;;;4.15;1.65;;;;;;;10.75;61.34;99596.06;5004779;27;97428;-79
2023/01/13 09:09:10;;;;;;;2.88;1.50;;;;;;;10.75;61.31;99593.44;5017361;27;100959;-79
2023/01/13 09:14:26;;;;;;;2.85;1.30;;;;;;;10.68;61.58;99592.03;5029221;27;96981;-78
2023/01/13 09:16:51;;;;;;;3.70;1.50;;;;;;;10.73;61.67;99593.50;5013229;27;96961;-75
2023/01/13 09:19:17;;;;;;;2.30;1.48;;;;;;;10.67;61.65;99592.94;5010926;28;101300;-78
2023/01/13 09:21:42;;;;;;;3.47;1.55;;;;;;;10.73;61.78;99606.63;5011866;27;97899;-78
2023/01/13 09:24:08;;;;;;;3.03;1.25;;;;;;;10.61;61.89;99586.19;5030247;27;96753;-77
2023/01/13 09:26:33;;;;;;;2.90;1.38;;;;;;;10.74;61.88;99592.59;5029637;27;97639;-78
2023/01/13 09:28:59;;;;;;;3.17;1.45;;;;;;;10.76;62.53;99598.63;4996057;27;101506;-78
2023/01/13 09:31:24;;;;;;;3.45;1.50;;;;;;;10.73;62.24;99597.91;5028245;27;99161;-77
2023/01/13 09:36:34;;;;;;;4.13;1.30;;;;;;;10.73;63.02;99598.75;5027978;27;97471;-77
2023/01/13 09:38:59;;;;;;;5.00;1.55;;;;;;;10.68;62.97;99597.28;5008832;27;101556;-77
2023/01/13 09:44:17;;;;;;;3.28;1.70;;;;;;;10.68;63.20;99586.78;5009204;27;98037;-77
2023/01/13 09:46:46;;;;;;;5.50;1.60;;;;;;;10.69;63.08;99588.47;5014182;27;97200;-77
2023/01/13 09:49:24;;;;;;;3.67;1.95;;;;;;;10.72;62.23;99586.56;5023126;27;97485;-76
2023/01/13 09:52:08;;;;;;;4.50;1.83;;;;;;;10.68;62.93;99590.25;5032454;27;101359;-77
2023/01/13 09:54:43;;;;;;;2.90;1.52;;;;;;;10.70;62.53;99585.78;4991781;27;96864;-75
2023/01/13 09:57:18;;;;;;;4.85;1.95;;;;;;;10.67;63.17;99585.06;5022904;28;96824;-76
2023/01/13 09:59:44;;;;;;;2.00;1.08;;;;;;;10.63;63.22;99576.50;5009392;27;97621;-78
2023/01/13 10:02:26;;;;;;;3.60;1.30;;;;;;;10.71;63.30;99581.41;5005754;27;101949;-76
2023/01/13 10:05:02;;;;;;;3.08;1.25;;;;;;;10.71;63.59;99576.16;5049500;27;98311;-76
2023/01/13 10:07:31;;;;;;;1.77;1.17;;;;;;;10.68;63.24;99577.13;5046759;27;96882;-75
2023/01/13 10:09:58;;;;;;;5.28;1.65;;;;;;;10.67;63.81;99572.78;5065404;27;98182;-76
2023/01/13 10:15:14;;;;;;;2.92;1.35;;;;;;;10.68;63.17;99550.03;5052316;27;97406;-77
2023/01/13 10:18:04;;;;;;;4.90;2.93;;;;;;;10.79;63.38;99555.63;5049179;27;97717;-77
2023/01/13 10:20:35;;;;;;;3.63;1.52;;;;;;;10.98;62.97;99555.59;5062285;27;101097;-77
2023/01/13 10:23:36;;;;;;;3.08;1.40;;;;;;;11.24;62.85;99560.44;5064941;27;97725;-77
2023/01/13 10:26:09;;;;;;;2.88;1.60;;;;;;;11.55;62.09;99551.91;5059463;27;97031;-78
2023/01/13 10:28:34;;;;;;;2.83;1.33;;;;;;;11.73;61.83;99552.75;5046973;27;97376;-78
2023/01/13 10:31:03;;;;;;;4.07;1.65;;;;;;;11.88;60.98;99548.50;5029617;27;100705;-79
2023/01/13 10:33:29;;;;;;;3.95;1.90;;;;;;;11.87;60.75;99538.06;5044979;27;101612;-77
2023/01/13 10:36:17;;;;;;;6.00;1.60;;;;;;;11.96;60.46;99548.97;5040526;27;97410;-77
2023/01/13 10:38:44;;;;;;;3.90;1.85;;;;;;;11.87;60.07;99546.81;5047167;27;97112;-79
2023/01/13 10:41:35;;;;;;;3.65;1.65;;;;;;;11.85;60.62;99543.41;5031012;27;101388;-78
2023/01/13 10:44:03;;;;;;;3.42;1.65;;;;;;;11.74;60.55;99533.41;5044229;27;98842;-78
2023/01/13 10:46:33;;;;;;;3.88;1.48;;;;;;;11.74;60.76;99533.41;5069855;27;98107;-77
2023/01/13 10:48:59;;;;;;;7.45;2.10;;;;;;;11.81;60.52;99538.34;5039686;27;96839;-77
2023/01/13 10:51:24;;;;;;;6.57;1.85;;;;;;;11.73;60.11;99539.59;5058720;27;101562;-76
2023/01/13 10:53:54;;;;;;;7.22;2.10;;;;;;;11.64;60.49;99532.19;5055754;27;101629;-77
2023/01/13 10:56:21;;;;;;;4.07;2.05;;;;;;;11.52;60.25;99522.31;5058053;27;97553;-77
2023/01/13 10:58:47;;;;;;;2.33;1.30;;;;;;;11.31;60.19;99490.94;5056354;27;96808;-77
2023/01/13 11:01:24;;;;;;;2.47;1.30;;;;;;;11.61;60.15;99521.84;5068065;27;99288;-77
2023/01/13 11:03:53;;;;;;;2.60;1.38;;;;;;;11.57;60.26;99526.38;5042374;27;101702;-76
2023/01/13 11:06:29;;;;;;;5.57;1.75;;;;;;;11.46;60.92;99515.59;5063711;27;97582;-75
2023/01/13 11:08:57;;;;;;;3.92;1.50;;;;;;;11.48;60.65;99515.50;5070138;27;97327;-76
2023/01/13 11:11:25;;;;;;;4.50;1.73;;;;;;;11.54;60.66;99534.41;5065358;27;97482;-77
2023/01/13 11:16:40;;;;;;;2.50;1.40;;;;;;;11.51;60.87;99528.47;5053360;27;96814;-81
2023/01/13 11:19:11;;;;;;;3.20;1.40;;;;;;;11.48;60.47;99521.59;5048815;27;96839;-79
2023/01/13 11:21:38;;;;;;;9.18;1.95;;;;;;;11.55;60.51;99536.13;5066571;27;98058;-79
2023/01/13 11:24:11;;;;;;;3.40;1.60;;;;;;;11.61;60.49;99532.34;5068726;27;97584;-79
2023/01/13 11:26:57;;;;;;;5.60;1.85;;;;;;;11.63;59.78;99516.50;5041653;27;97227;-81
2023/01/13 11:29:36;;;;;;;6.90;2.45;;;;;;;11.70;59.59;99521.38;5055506;27;96886;-81
2023/01/13 11:32:09;;;;;;;5.28;1.45;;;;;;;11.82;59.27;99509.38;5047461;27;97597;-77
2023/01/13 11:34:38;;;;;;;5.15;1.88;;;;;;;11.81;59.20;99507.66;5063324;27;97455;-76
2023/01/13 11:37:19;;;;;;;9.77;2.00;;;;;;;11.86;58.85;99505.66;5056955;27;96866;-77
2023/01/13 11:39:58;;;;;;;3.15;1.40;;;;;;;11.85;59.38;99509.22;5064095;27;97689;-77
2023/01/13 11:42:33;;;;;;;7.18;1.55;;;;;;;11.90;58.87;99501.97;5050385;27;101304;-78
2023/01/13 11:45:04;;;;;;;2.72;1.42;;;;;;;11.87;58.76;99498.63;5066085;27;101278;-75
2023/01/13 11:47:30;;;;;;;4.07;1.57;;;;;;;11.64;58.98;99471.72;5051663;27;97488;-76
2023/01/13 11:49:56;;;;;;;5.78;2.05;;;;;;;11.68;59.45;99482.94;5042197;27;98609;-76
2023/01/13 11:53:13;;;;;;;5.20;1.80;;;;;;;11.82;58.71;99516.41;5029692;27;98428;-78
2023/01/13 11:56:02;;;;;;;4.95;1.85;;;;;;;11.74;58.62;99507.13;5021754;27;100782;-78
2023/01/13 11:59:06;;;;;;;2.78;1.48;;;;;;;11.73;59.39;99501.97;5066515;27;97225;-77
2023/01/13 12:02:10;;;;;;;3.50;1.58;;;;;;;11.69;59.17;99503.91;5025652;27;97121;-78
2023/01/13 12:05:00;;;;;;;7.20;1.70;;;;;;;11.71;59.20;99503.81;5045336;27;101224;-78
2023/01/13 12:08:00;;;;;;;4.60;1.98;;;;;;;11.51;59.51;99473.28;5057284;27;98103;-76
2023/01/13 12:11:01;;;;;;;7.97;1.80;;;;;;;11.62;60.40;99504.28;5078010;27;97143;-76
2023/01/13 12:13:44;;;;;;;10.20;2.03;;;;;;;11.62;59.79;99510.38;5034492;27;97494;-80
2023/01/13 12:16:15;;;;;;;5.50;2.00;;;;;;;11.65;60.05;99502.34;5045917;27;101640;-77
2023/01/13 12:19:09;;;;;;;3.67;2.05;;;;;;;11.63;59.99;99493.66;5065849;27;101489;-77
2023/01/13 12:21:57;;;;;;;4.70;2.08;;;;;;;11.64;60.67;99491.91;5052274;27;100314;-78
2023/01/13 12:24:36;;;;;;;3.03;1.67;;;;;;;11.72;59.98;99503.75;5034290;27;97516;-79
2023/01/13 12:27:10;;;;;;;6.20;2.45;;;;;;;11.72;60.49;99506.38;5068523;27;101504;-79
2023/01/13 12:29:37;;;;;;;3.65;2.03;;;;;;;11.80;59.98;99508.59;5065959;27;98508;-81
2023/01/13 12:32:06;;;;;;;3.60;2.00;;;;;;;11.79;59.71;99504.25;5039727;27;96952;-79